Time;durP1;ratioP1;P1;durP2;ratioP2;P2;SDS_P1;SDS_P2;PMS_P1;PMS_P2;Temp;Humidity;BMP_temperature;BMP_pressure;BME280_temperature;BME280_humidity;BME280_pressure;Samples;Min_cycle;Max_cycle;Signal;HPM_P1;HPM_P2
2024/02/04 06:58:34;;;;;;;4.22;2.80;;;8.70;99.90;;;;;;654637;22;20440;-85
2024/02/04 07:01:00;;;;;;;4.45;2.72;;;8.70;99.90;;;;;;5093570;28;20021;-88
2024/02/04 07:03:25;;;;;;;5.53;2.72;;;7.00;99.90;;;;;;5086046;28;20016;-87
2024/02/04 07:05:51;;;;;;;4.38;2.22;;;8.70;99.90;;;;;;5088684;28;20044;-90
2024/02/04 07:08:17;;;;;;;3.30;2.20;;;;;;;;;;5085310;28;20036;-88
2024/02/04 07:10:43;;;;;;;4.30;2.17;;;8.80;99.90;;;;;;5089588;28;20049;-88
2024/02/04 07:13:11;;;;;;;4.57;2.13;;;8.90;99.90;;;;;;5088503;28;20016;-90
2024/02/04 07:15:37;;;;;;;3.53;2.03;;;11.10;99.90;;;;;;5085497;28;20119;-88
2024/02/04 07:18:02;;;;;;;3.50;2.20;;;8.90;99.90;;;;;;5090772;28;20040;-88
2024/02/04 07:20:28;;;;;;;4.03;1.85;;;8.80;99.90;;;;;;5083546;28;20013;-88
2024/02/04 07:22:54;;;;;;;4.72;2.30;;;9.20;99.90;;;;;;5081649;28;20043;-84
2024/02/04 07:25:20;;;;;;;4.07;2.00;;;8.80;99.90;;;;;;5090673;28;20039;-89
2024/02/04 07:27:45;;;;;;;3.35;2.17;;;10.60;99.90;;;;;;5089632;28;20029;-90
2024/02/04 07:30:11;;;;;;;5.32;1.90;;;8.60;99.90;;;;;;5083803;28;20020;-89
2024/02/04 07:32:38;;;;;;;3.17;1.83;;;7.60;99.90;;;;;;5085857;28;20088;-89
2024/02/04 07:35:04;;;;;;;2.60;1.52;;;10.30;99.90;;;;;;5082244;28;20039;-90
2024/02/04 07:37:30;;;;;;;2.28;1.65;;;8.80;99.90;;;;;;5073790;28;20025;-89
2024/02/04 07:39:56;;;;;;;2.88;1.70;;;;;;;;;;5090302;28;20008;-88
2024/02/04 07:42:22;;;;;;;3.00;1.73;;;8.70;99.90;;;;;;5087877;28;20036;-88
2024/02/04 07:44:48;;;;;;;3.70;2.05;;;9.60;99.90;;;;;;5085264;28;20052;-88
2024/02/04 07:47:14;;;;;;;2.50;1.80;;;;;;;;;;5083263;28;20025;-89
2024/02/04 07:49:39;;;;;;;2.60;1.90;;;8.70;99.90;;;;;;5091180;28;20008;-87
2024/02/04 07:52:05;;;;;;;3.03;1.60;;;10.80;99.90;;;;;;5087443;28;20038;-87
2024/02/04 07:54:32;;;;;;;2.20;1.52;;;9.60;99.90;;;;;;5085397;28;20073;-87
2024/02/04 07:56:58;;;;;;;3.22;1.70;;;8.90;99.90;;;;;;5064481;28;20092;-87
2024/02/04 07:59:24;;;;;;;3.45;1.95;;;8.90;99.90;;;;;;5091897;28;20016;-87
2024/02/04 08:01:49;;;;;;;3.58;1.52;;;8.60;99.90;;;;;;5107444;28;20016;-88
2024/02/04 08:04:15;;;;;;;3.30;1.70;;;10.70;99.90;;;;;;5105838;28;21337;-88
2024/02/04 08:06:41;;;;;;;3.95;1.70;;;8.70;99.90;;;;;;5102052;28;20032;-87
2024/02/04 08:09:06;;;;;;;3.10;1.90;;;10.00;99.90;;;;;;5111432;28;20020;-88
2024/02/04 08:11:35;;;;;;;3.05;1.90;;;10.40;99.90;;;;;;5108713;28;20020;-88
2024/02/04 08:14:01;;;;;;;2.83;1.70;;;10.60;99.90;;;;;;5105426;28;20036;-87
2024/02/04 08:16:26;;;;;;;2.90;1.83;;;10.70;99.90;;;;;;5105912;28;20012;-88
2024/02/04 08:18:52;;;;;;;4.28;2.08;;;8.70;99.90;;;;;;5105567;28;20029;-90
2024/02/04 08:21:20;;;;;;;3.10;1.63;;;6.80;99.90;;;;;;5103607;28;20035;-86
2024/02/04 08:23:46;;;;;;;3.50;1.98;;;8.60;99.90;;;;;;5092621;28;20018;-84
2024/02/04 08:26:15;;;;;;;6.53;2.40;;;10.60;99.90;;;;;;5104305;28;20036;-87
2024/02/04 08:28:41;;;;;;;2.97;1.98;;;8.70;99.90;;;;;;5110241;28;20011;-87
2024/02/04 08:31:07;;;;;;;3.05;2.22;;;8.60;99.90;;;;;;5090367;28;20016;-88
2024/02/04 08:33:33;;;;;;;3.85;1.95;;;8.50;99.90;;;;;;5103707;28;20054;-89
2024/02/04 08:35:59;;;;;;;5.03;2.38;;;;;;;;;;5098951;28;20089;-89
2024/02/04 08:38:24;;;;;;;3.05;2.00;;;8.70;99.90;;;;;;5106272;28;20072;-89
2024/02/04 08:40:50;;;;;;;2.95;1.85;;;8.80;99.90;;;;;;5106829;28;20031;-89
2024/02/04 08:43:16;;;;;;;3.78;1.98;;;8.80;99.90;;;;;;5102734;28;21249;-88
2024/02/04 08:45:42;;;;;;;3.00;1.60;;;8.80;99.90;;;;;;5099962;28;20012;-87
2024/02/04 08:48:07;;;;;;;2.95;1.90;;;8.70;99.90;;;;;;5106719;28;20092;-88
2024/02/04 08:50:33;;;;;;;4.07;2.20;;;8.90;99.90;;;;;;5102329;28;20028;-90
2024/02/04 08:52:59;;;;;;;3.42;1.90;;;;;;;;;;5102975;27;20290;-88
2024/02/04 08:55:25;;;;;;;3.03;1.98;;;8.90;99.90;;;;;;5101076;28;20012;-88
2024/02/04 08:57:53;;;;;;;5.28;2.40;;;;;;;;;;5102659;28;20021;-88
2024/02/04 09:00:21;;;;;;;3.95;2.20;;;8.80;99.90;;;;;;5104183;28;20040;-90
2024/02/04 09:02:47;;;;;;;3.78;2.58;;;8.80;99.90;;;;;;5098340;28;20909;-87
2024/02/04 09:05:15;;;;;;;4.55;2.28;;;;;;;;;;5102938;28;20036;-89
2024/02/04 09:07:40;;;;;;;3.63;1.90;;;8.80;99.90;;;;;;5103612;28;20009;-88
2024/02/04 09:10:07;;;;;;;5.80;2.47;;;11.10;99.90;;;;;;5105221;28;20248;-86
2024/02/04 09:12:32;;;;;;;3.65;2.47;;;8.80;99.90;;;;;;5111533;27;20111;-88
2024/02/04 09:14:58;;;;;;;2.63;1.60;;;11.00;99.90;;;;;;5103612;28;20017;-89
2024/02/04 09:17:24;;;;;;;3.35;1.90;;;;;;;;;;5102919;28;20020;-88
2024/02/04 09:19:54;;;;;;;4.32;2.03;;;8.80;99.90;;;;;;5100836;28;20040;-89
2024/02/04 09:22:20;;;;;;;3.10;1.67;;;8.30;99.90;;;;;;5088630;28;20016;-89
2024/02/04 09:24:45;;;;;;;3.20;1.92;;;9.00;99.90;;;;;;5106249;28;20095;-87
2024/02/04 09:27:11;;;;;;;4.22;1.92;;;8.80;99.90;;;;;;5104689;28;20111;-89
2024/02/04 09:29:37;;;;;;;3.70;1.70;;;10.40;99.90;;;;;;5099548;27;20084;-88
2024/02/04 09:32:03;;;;;;;2.80;1.60;;;8.80;99.90;;;;;;5100886;28;20042;-89
2024/02/04 09:34:28;;;;;;;3.75;2.05;;;8.80;99.90;;;;;;5101688;28;20016;-88
2024/02/04 09:36:54;;;;;;;3.60;1.73;;;8.90;99.90;;;;;;5090594;28;20035;-89
2024/02/04 09:39:19;;;;;;;2.60;1.90;;;10.50;99.90;;;;;;5102236;28;20024;-88
2024/02/04 09:41:45;;;;;;;3.80;1.77;;;9.00;99.90;;;;;;5105337;28;20095;-88
2024/02/04 09:44:12;;;;;;;3.35;1.83;;;10.80;99.90;;;;;;5100442;28;20028;-89
2024/02/04 09:46:38;;;;;;;2.83;1.67;;;10.30;99.90;;;;;;5093712;28;20020;-90
2024/02/04 09:49:05;;;;;;;4.47;2.17;;;10.70;99.90;;;;;;5113297;22;20043;-88
2024/02/04 09:51:33;;;;;;;4.13;2.00;;;8.80;99.90;;;;;;5097104;28;20025;-89
2024/02/04 09:54:06;;;;;;;3.63;1.98;;;8.80;99.90;;;;;;5093192;27;20023;-88
2024/02/04 09:56:34;;;;;;;4.65;1.95;;;8.80;99.90;;;;;;5093146;28;20036;-88
2024/02/04 09:59:00;;;;;;;3.72;1.80;;;8.80;99.90;;;;;;5108833;27;20017;-89
2024/02/04 10:01:28;;;;;;;5.40;1.83;;;9.00;99.90;;;;;;5113178;27;20035;-88
2024/02/04 10:03:54;;;;;;;3.33;1.95;;;8.90;99.90;;;;;;5112676;27;20047;-89
2024/02/04 10:06:19;;;;;;;3.53;1.50;;;8.80;99.90;;;;;;5089430;28;20012;-89
2024/02/04 10:08:46;;;;;;;3.13;1.88;;;9.00;99.90;;;;;;5093755;28;20020;-90
2024/02/04 10:11:51;;;;;;;3.70;1.70;;;9.00;99.90;;;;;;5087776;23;20136;-86
2024/02/04 10:14:27;;;;;;;3.05;1.52;;;9.00;99.90;;;;;;5054220;28;20040;-88
2024/02/04 10:17:07;;;;;;;2.22;1.40;;;9.10;99.90;;;;;;5041756;28;20039;-86
2024/02/04 10:19:44;;;;;;;3.53;1.60;;;9.10;99.90;;;;;;5080198;28;20392;-85
2024/02/04 10:29:32;;;;;;;4.75;1.67;;;9.00;99.90;;;;;;5056128;28;20028;-85
2024/02/04 10:32:22;;;;;;;4.75;2.00;;;9.00;99.90;;;;;;5055790;28;20045;-87
2024/02/04 10:35:48;;;;;;;3.03;1.40;;;9.10;99.90;;;;;;5019384;28;20170;-85
2024/02/04 10:38:57;;;;;;;3.95;1.40;;;9.10;99.90;;;;;;5014858;28;20502;-87
2024/02/04 10:41:42;;;;;;;4.05;1.58;;;9.10;99.90;;;;;;5012397;28;20026;-86
2024/02/04 10:44:18;;;;;;;6.60;1.55;;;9.10;99.90;;;;;;5001165;28;20050;-89
2024/02/04 10:47:08;;;;;;;2.10;1.40;;;9.10;99.90;;;;;;5018003;28;20037;-85
2024/02/04 10:49:40;;;;;;;3.25;1.60;;;9.10;99.90;;;;;;5004723;28;20038;-86
2024/02/04 10:52:07;;;;;;;3.47;1.63;;;9.10;99.90;;;;;;5022310;28;20049;-86
2024/02/04 10:54:36;;;;;;;3.65;1.60;;;10.10;99.90;;;;;;5076703;28;20024;-87
2024/02/04 10:57:14;;;;;;;2.33;1.40;;;9.10;99.90;;;;;;5069690;28;20082;-84
2024/02/04 10:59:43;;;;;;;3.42;1.60;;;9.00;99.90;;;;;;5071646;28;21493;-88
2024/02/04 11:02:12;;;;;;;2.50;1.45;;;9.20;99.90;;;;;;5059585;28;20067;-86
2024/02/04 11:04:41;;;;;;;2.80;1.33;;;9.20;99.90;;;;;;5073436;28;20043;-82
2024/02/04 11:07:09;;;;;;;1.90;1.40;;;9.10;99.90;;;;;;5071871;28;20511;-85
2024/02/04 11:09:55;;;;;;;2.97;1.60;;;9.20;99.90;;;;;;5053250;28;20396;-87
2024/02/04 11:13:09;;;;;;;1.95;1.40;;;9.20;99.90;;;;;;5073595;28;20445;-86
2024/02/04 11:16:10;;;;;;;5.05;1.40;;;9.30;99.90;;;;;;5063580;28;20060;-85
2024/02/04 11:19:34;;;;;;;1.80;1.38;;;9.40;99.90;;;;;;5052812;28;20037;-85
2024/02/04 11:25:54;;;;;;;3.13;1.27;;;9.50;99.90;;;;;;5026922;28;20080;-85
2024/02/04 11:28:22;;;;;;;1.20;1.10;;;9.60;99.90;;;;;;5087645;28;20029;-84
2024/02/04 11:30:56;;;;;;;2.17;1.38;;;10.50;99.90;;;;;;5090503;28;20036;-83
2024/02/04 11:33:22;;;;;;;3.38;1.58;;;9.50;99.90;;;;;;5067900;28;20021;-83
2024/02/04 11:36:07;;;;;;;4.68;2.22;;;9.60;99.90;;;;;;5091021;28;20040;-86
2024/02/04 11:38:37;;;;;;;2.08;1.10;;;9.70;99.90;;;;;;5089068;28;20021;-85
2024/02/04 11:41:04;;;;;;;3.45;1.20;;;9.60;99.90;;;;;;5087427;28;20369;-85
2024/02/04 11:43:40;;;;;;;2.00;1.10;;;9.70;99.90;;;;;;5078360;28;20056;-86
2024/02/04 11:46:20;;;;;;;1.48;1.00;;;9.60;99.90;;;;;;5062051;28;22410;-87
2024/02/04 11:49:22;;;;;;;3.05;1.20;;;9.70;99.90;;;;;;5067001;28;20025;-83
2024/02/04 11:51:58;;;;;;;3.08;1.20;;;9.80;99.90;;;;;;5085797;28;20047;-86
2024/02/04 11:55:25;;;;;;;1.42;1.05;;;9.70;99.90;;;;;;5065037;28;20037;-86
2024/02/04 12:05:44;;;;;;;3.13;1.00;;;10.00;99.90;;;;;;5013066;28;20093;-87
2024/02/04 12:12:50;;;;;;;3.60;1.15;;;10.00;99.90;;;;;;5014262;28;20049;-87
2024/02/04 12:20:05;;;;;;;1.92;1.05;;;10.20;99.90;;;;;;4926286;29;20432;-85
2024/02/04 12:23:38;;;;;;;1.55;1.10;;;10.20;99.90;;;;;;4878431;29;20418;-86
2024/02/04 12:27:03;;;;;;;2.08;1.25;;;10.30;99.90;;;;;;4918941;28;20149;-87
2024/02/04 12:34:12;;;;;;;1.50;1.00;;;10.30;99.90;;;;;;4951398;28;20050;-87
2024/02/04 12:38:07;;;;;;;1.40;0.90;;;10.20;99.90;;;;;;4936871;29;20139;-85
2024/02/04 12:48:43;;;;;;;2.28;1.20;;;10.20;99.90;;;;;;4915704;28;20518;-87
2024/02/04 12:52:20;;;;;;;4.22;1.85;;;10.20;99.90;;;;;;4954943;28;20053;-85
2024/02/04 12:55:46;;;;;;;2.10;1.20;;;10.10;99.90;;;;;;5002514;28;20061;-89
2024/02/04 12:59:18;;;;;;;1.98;1.10;;;10.20;99.90;;;;;;5008489;28;20140;-85
2024/02/04 13:10:15;;;;;;;1.30;1.00;;;10.30;99.90;;;;;;5013594;28;20037;-85
2024/02/04 13:17:30;;;;;;;1.75;1.10;;;10.30;99.90;;;;;;5013228;28;20052;-84
2024/02/04 13:21:04;;;;;;;1.38;0.90;;;10.70;99.90;;;;;;4972971;28;20066;-86
2024/02/04 13:24:42;;;;;;;1.52;1.10;;;10.30;99.90;;;;;;4976745;28;20155;-84
2024/02/04 13:28:09;;;;;;;2.13;1.10;;;10.30;99.90;;;;;;5009286;28;20030;-83
2024/02/04 13:31:37;;;;;;;4.70;1.48;;;10.40;99.90;;;;;;5032359;28;20037;-85
2024/02/04 13:34:37;;;;;;;2.10;0.95;;;10.30;99.90;;;;;;5019011;28;20037;-88
2024/02/04 13:37:04;;;;;;;1.90;0.80;;;10.40;99.90;;;;;;5024618;28;20129;-87
2024/02/04 13:39:30;;;;;;;0.95;0.70;;;10.40;99.90;;;;;;5037697;28;20033;-82
2024/02/04 13:41:56;;;;;;;1.02;0.60;;;10.70;99.90;;;;;;5058733;28;20033;-84
2024/02/04 13:44:34;;;;;;;1.63;1.08;;;10.50;99.90;;;;;;5057997;28;20032;-84
2024/02/04 13:47:09;;;;;;;2.03;0.70;;;10.40;99.90;;;;;;5059406;28;20063;-84
2024/02/04 13:49:36;;;;;;;1.23;0.68;;;10.40;99.90;;;;;;5058966;28;20032;-85
2024/02/04 13:52:03;;;;;;;1.90;0.60;;;11.30;99.90;;;;;;5058326;28;20485;-85
2024/02/04 14:39:18;;;;;;;3.45;1.30;;;10.50;99.90;;;;;;4999977;28;20041;-81
2024/02/04 14:49:47;;;;;;;1.48;1.02;;;8.60;99.90;;;;;;4997685;28;20150;-87
2024/02/04 14:56:52;;;;;;;1.95;1.05;;;10.10;99.90;;;;;;4978599;28;20054;-86
2024/02/04 15:03:58;;;;;;;4.78;1.63;;;10.20;99.90;;;;;;4902538;29;20085;-86
2024/02/04 15:27:43;;;;;;;1.98;1.27;;;9.80;99.90;;;;;;4901366;29;20055;-84
2024/02/04 15:31:12;;;;;;;2.05;1.10;;;9.70;99.90;;;;;;4883090;29;20070;-83
2024/02/04 16:49:25;;;;;;;3.45;1.42;;;9.70;99.90;;;;;;4959606;29;20451;-83
2024/02/04 16:52:37;;;;;;;3.30;1.52;;;9.60;99.90;;;;;;5056502;22;20044;-84
2024/02/04 16:56:16;;;;;;;2.70;1.50;;;9.60;99.90;;;;;;4997813;28;20054;-85
2024/02/04 18:14:33;;;;;;;1.75;1.10;;;9.40;99.90;;;;;;4906087;29;20074;-82
2024/02/04 18:17:05;;;;;;;1.77;1.10;;;9.30;99.90;;;;;;4940114;28;20053;-83
2024/02/04 18:19:34;;;;;;;1.80;1.02;;;10.60;99.90;;;;;;4979692;28;20063;-85
2024/02/04 18:22:00;;;;;;;2.88;1.60;;;9.40;99.90;;;;;;5038128;28;20030;-82
2024/02/04 18:24:26;;;;;;;3.15;1.30;;;9.30;99.90;;;;;;5027412;28;20114;-82
2024/02/04 18:26:51;;;;;;;2.15;1.35;;;9.20;99.90;;;;;;5026493;28;20028;-84
2024/02/04 18:29:17;;;;;;;1.40;0.90;;;9.20;99.90;;;;;;5043752;28;20092;-86
2024/02/04 18:31:45;;;;;;;3.47;1.10;;;9.20;99.90;;;;;;5023360;28;20437;-84
2024/02/04 18:34:12;;;;;;;2.28;1.27;;;9.20;99.90;;;;;;5024088;28;20501;-85
2024/02/04 18:36:38;;;;;;;1.63;1.10;;;9.20;99.90;;;;;;5026462;28;20576;-86
2024/02/04 18:39:06;;;;;;;2.42;1.00;;;9.10;99.90;;;;;;5025996;28;20022;-84
2024/02/04 18:41:32;;;;;;;1.60;1.17;;;9.20;99.90;;;;;;5026834;28;20044;-87
2024/02/04 18:43:58;;;;;;;1.80;1.40;;;9.20;99.90;;;;;;5025435;28;20033;-86
2024/02/04 18:46:24;;;;;;;3.13;1.30;;;10.90;99.90;;;;;;5044605;28;20035;-82
2024/02/04 18:48:51;;;;;;;2.63;1.30;;;9.20;99.90;;;;;;5027036;28;20112;-83
2024/02/04 18:51:18;;;;;;;1.70;1.20;;;9.40;99.90;;;;;;5025652;28;20093;-85
2024/02/04 18:53:44;;;;;;;1.80;1.23;;;9.20;99.90;;;;;;5044347;28;20104;-85
2024/02/04 18:56:15;;;;;;;2.20;1.23;;;9.00;99.90;;;;;;5026644;28;20021;-84
2024/02/04 18:58:41;;;;;;;2.50;1.30;;;9.20;99.90;;;;;;5026103;28;20018;-83
2024/02/04 19:01:09;;;;;;;1.25;0.95;;;7.70;99.90;;;;;;5009790;28;20034;-81
2024/02/04 19:03:35;;;;;;;2.10;1.42;;;9.00;99.90;;;;;;5042670;28;20017;-85
2024/02/04 19:06:04;;;;;;;2.28;1.30;;;9.10;99.90;;;;;;5037552;28;20477;-82
2024/02/04 19:08:30;;;;;;;2.28;1.50;;;9.20;99.90;;;;;;5028847;28;20033;-82
2024/02/04 19:10:57;;;;;;;1.98;1.35;;;9.10;99.90;;;;;;5044738;28;20488;-84
2024/02/04 19:13:23;;;;;;;1.85;1.38;;;9.50;99.90;;;;;;5044074;28;20017;-88
2024/02/04 19:15:49;;;;;;;2.05;1.45;;;9.10;99.90;;;;;;5045431;28;20060;-85
2024/02/04 19:18:16;;;;;;;4.32;1.48;;;9.20;99.90;;;;;;5044169;28;20025;-86
2024/02/04 19:20:42;;;;;;;1.85;1.13;;;9.20;99.90;;;;;;5045127;28;20020;-85
2024/02/04 19:23:09;;;;;;;2.40;1.20;;;9.00;99.90;;;;;;5063195;28;20470;-84
2024/02/04 19:25:37;;;;;;;2.33;1.35;;;9.00;99.90;;;;;;5044151;28;20036;-86
2024/02/04 19:28:03;;;;;;;3.30;1.50;;;8.90;99.90;;;;;;5045159;28;20021;-83
2024/02/04 19:30:30;;;;;;;3.78;2.10;;;8.90;99.90;;;;;;5044594;28;20040;-84
2024/02/04 19:32:59;;;;;;;3.90;2.60;;;9.40;99.90;;;;;;5044871;28;20063;-82
2024/02/04 19:35:29;;;;;;;3.55;1.70;;;9.10;99.90;;;;;;5045376;28;20025;-84
2024/02/04 19:37:56;;;;;;;2.83;1.45;;;8.90;99.90;;;;;;5046121;28;20025;-83
2024/02/04 19:40:22;;;;;;;3.28;1.98;;;8.90;99.90;;;;;;5063807;28;20094;-81
2024/02/04 19:42:51;;;;;;;2.72;1.60;;;8.90;99.90;;;;;;5037178;28;20083;-83
2024/02/04 19:45:20;;;;;;;3.95;1.60;;;9.80;99.90;;;;;;5035212;28;20047;-83
2024/02/04 19:47:48;;;;;;;2.58;1.48;;;8.90;99.90;;;;;;5045441;28;20017;-83
2024/02/04 19:50:13;;;;;;;2.13;1.38;;;8.90;99.90;;;;;;5043251;28;20083;-86
2024/02/04 19:52:39;;;;;;;1.95;1.23;;;8.90;99.90;;;;;;5039503;28;20420;-84
2024/02/04 19:55:05;;;;;;;2.15;1.35;;;8.80;99.90;;;;;;5044258;28;20017;-83
2024/02/04 19:57:34;;;;;;;3.10;1.30;;;8.80;99.90;;;;;;5045847;28;20115;-85
2024/02/04 20:00:00;;;;;;;3.30;1.50;;;8.80;99.90;;;;;;5042291;28;20034;-85
2024/02/04 20:02:27;;;;;;;3.58;1.40;;;9.40;99.90;;;;;;5048227;28;20033;-84
2024/02/04 20:04:53;;;;;;;3.38;1.60;;;9.00;99.90;;;;;;5051587;28;20029;-86
2024/02/04 20:07:19;;;;;;;2.38;1.50;;;;;;;;;;5041809;28;20513;-87
2024/02/04 20:09:45;;;;;;;3.17;1.30;;;8.80;99.90;;;;;;5045727;28;20028;-88
2024/02/04 20:12:11;;;;;;;2.67;1.60;;;8.90;99.90;;;;;;5065355;28;20059;-87
2024/02/04 20:14:37;;;;;;;2.10;1.33;;;8.80;99.90;;;;;;5046378;28;20017;-86
2024/02/04 20:17:03;;;;;;;1.83;1.30;;;8.80;99.90;;;;;;5063470;28;20035;-86
2024/02/04 20:19:29;;;;;;;2.10;1.50;;;8.90;99.90;;;;;;5044500;28;20064;-85
2024/02/04 20:21:55;;;;;;;1.90;1.40;;;8.80;99.90;;;;;;5045357;28;20052;-83
2024/02/04 20:24:21;;;;;;;2.40;1.63;;;;;;;;;;5033731;28;20485;-86
2024/02/04 20:26:47;;;;;;;2.38;1.30;;;8.90;99.90;;;;;;5036977;28;20032;-86
2024/02/04 20:29:12;;;;;;;2.10;1.13;;;8.80;99.90;;;;;;5043708;28;20024;-86
2024/02/04 20:31:40;;;;;;;2.95;1.40;;;9.00;99.90;;;;;;5042966;28;20108;-87
2024/02/04 20:34:07;;;;;;;3.72;1.65;;;9.00;99.90;;;;;;5058000;28;20013;-83
2024/02/04 20:36:36;;;;;;;2.22;1.52;;;9.10;99.90;;;;;;5043232;28;20017;-84
2024/02/04 20:39:06;;;;;;;2.08;1.30;;;9.10;99.90;;;;;;5039748;28;20392;-83
2024/02/04 20:41:31;;;;;;;3.08;1.50;;;9.00;99.90;;;;;;5043012;28;20040;-85
2024/02/04 20:43:57;;;;;;;1.80;1.20;;;;;;;;;;5044330;28;20033;-88
2024/02/04 20:46:23;;;;;;;1.92;1.27;;;9.10;99.90;;;;;;5043890;28;20106;-86
2024/02/04 20:48:49;;;;;;;3.58;1.67;;;9.20;99.90;;;;;;5039712;28;20041;-83
2024/02/04 20:51:16;;;;;;;2.90;1.60;;;9.30;99.90;;;;;;5042144;28;20455;-87
2024/02/04 20:53:42;;;;;;;2.45;1.33;;;9.10;99.90;;;;;;5059203;28;20025;-85
2024/02/04 20:56:09;;;;;;;2.88;1.27;;;;;;;;;;5062375;28;20080;-88
2024/02/04 20:58:34;;;;;;;3.42;1.50;;;9.00;99.90;;;;;;5046287;28;20104;-83
2024/02/04 21:01:00;;;;;;;2.08;1.25;;;;;;;;;;5055318;28;20397;-88
2024/02/04 21:03:26;;;;;;;2.67;1.50;;;;;;;;;;5042681;28;20025;-85
2024/02/04 21:05:53;;;;;;;5.03;1.80;;;9.20;99.90;;;;;;5064194;28;20048;-86
2024/02/04 21:08:19;;;;;;;2.25;1.27;;;10.20;99.90;;;;;;5060324;28;20025;-85
2024/02/04 21:10:57;;;;;;;3.08;1.42;;;9.20;99.90;;;;;;5063909;28;20028;-87
2024/02/04 21:13:28;;;;;;;2.10;1.30;;;9.10;99.90;;;;;;5037192;28;20033;-88
2024/02/04 21:15:56;;;;;;;1.83;1.10;;;8.90;99.90;;;;;;5044613;28;20045;-84
2024/02/04 21:18:50;;;;;;;;;;;;;;;;;;;;;
2024/02/04 21:21:35;;;;;;;;;;;;;;;;;;;;;
2024/02/04 21:24:52;;;;;;;;;;;;;;;;;;;;;
2024/02/04 21:27:31;;;;;;;;;;;;;;;;;;;;;
2024/02/04 21:30:07;;;;;;;2.03;1.30;;;9.10;99.90;;;;;;4945585;29;20088;-85
2024/02/04 21:32:34;;;;;;;2.17;1.20;;;;;;;;;;4964960;28;20043;-86
2024/02/04 21:35:22;;;;;;;2.42;1.30;;;9.10;99.90;;;;;;4981663;28;20061;-85
2024/02/04 21:37:48;;;;;;;2.10;1.30;;;;;;;;;;4990049;28;20102;-86
2024/02/04 21:40:16;;;;;;;2.42;1.52;;;9.10;99.90;;;;;;5058817;28;20078;-83
2024/02/04 21:42:42;;;;;;;2.22;1.23;;;;;;;;;;5038608;28;20032;-89
2024/02/04 21:45:08;;;;;;;3.40;1.30;;;;;;;;;;5026263;28;20032;-82
2024/02/04 21:47:34;;;;;;;3.22;1.42;;;9.10;99.90;;;;;;5017481;28;20076;-85
2024/02/04 21:50:04;;;;;;;2.67;1.35;;;;;;;;;;5052580;28;20037;-86
2024/02/04 21:52:32;;;;;;;1.70;1.10;;;;;;;;;;5056425;28;20639;-85
2024/02/04 21:54:58;;;;;;;1.95;1.33;;;9.00;99.90;;;;;;5056989;28;20028;-86
2024/02/04 21:57:26;;;;;;;1.80;1.30;;;7.50;99.90;;;;;;5041500;28;20030;-87
2024/02/04 21:59:52;;;;;;;3.65;1.48;;;;;;;;;;5044121;28;20042;-85
2024/02/04 22:02:21;;;;;;;1.50;0.90;;;;;;;;;;5048806;28;20112;-83
2024/02/04 22:04:52;;;;;;;1.40;1.00;;;8.90;99.90;;;;;;5053936;28;20021;-83
2024/02/04 22:07:18;;;;;;;1.92;1.10;;;;;;;;;;5066061;28;20483;-84
2024/02/04 22:09:51;;;;;;;3.17;1.42;;;;;;;;;;5061993;28;20030;-87
2024/02/04 22:12:17;;;;;;;2.92;1.30;;;8.90;99.90;;;;;;5056037;28;20029;-84
2024/02/04 22:14:43;;;;;;;2.70;1.10;;;;;;;;;;5043999;28;20025;-88
2024/02/04 22:17:10;;;;;;;3.70;1.30;;;8.90;99.90;;;;;;5054713;28;20051;-86
2024/02/04 22:19:38;;;;;;;2.38;1.45;;;;;;;;;;5045899;28;20029;-85
2024/02/04 22:22:05;;;;;;;1.70;1.23;;;;;;;;;;5063589;28;20017;-86
2024/02/04 22:24:36;;;;;;;5.20;1.40;;;8.70;99.90;;;;;;5039508;28;20029;-87
2024/02/04 22:27:31;;;;;;;2.63;1.40;;;8.90;99.90;;;;;;5062766;28;20029;-85
2024/02/04 22:32:47;;;;;;;2.35;1.17;;;8.90;99.90;;;;;;5010609;28;20037;-85
2024/02/04 22:35:18;;;;;;;2.10;1.30;;;7.50;99.90;;;;;;5063552;28;20025;-85
2024/02/04 22:37:44;;;;;;;2.53;1.20;;;8.80;99.90;;;;;;5045383;28;20057;-87
2024/02/04 22:40:30;;;;;;;;;;;;;;;;;;;;;
2024/02/04 22:42:56;;;;;;;2.65;1.10;;;;;;;;;;5054982;28;20089;-83
2024/02/04 22:45:31;;;;;;;2.10;1.17;;;8.90;99.90;;;;;;5045333;28;20021;-83
2024/02/04 22:47:57;;;;;;;2.42;1.15;;;9.30;99.90;;;;;;5045873;28;20539;-85
2024/02/04 22:50:23;;;;;;;2.70;1.05;;;7.50;99.90;;;;;;5044532;28;20024;-86
2024/02/04 22:52:49;;;;;;;1.90;1.08;;;9.00;99.90;;;;;;5037499;28;20033;-85
2024/02/04 22:55:15;;;;;;;2.22;1.00;;;9.10;99.90;;;;;;5044907;28;20029;-87
2024/02/04 22:57:43;;;;;;;3.33;1.25;;;8.90;99.90;;;;;;5055965;28;20090;-86
2024/02/04 23:00:28;;;;;;;1.63;1.00;;;9.00;99.90;;;;;;5044730;28;20025;-85
2024/02/04 23:02:55;;;;;;;3.97;0.90;;;8.30;99.90;;;;;;5054378;28;20037;-82
2024/02/04 23:05:34;;;;;;;2.67;1.20;;;8.80;99.90;;;;;;5042784;28;20116;-89
2024/02/04 23:08:29;;;;;;;2.95;1.05;;;7.00;99.90;;;;;;5038061;28;20074;-87
2024/02/04 23:11:07;;;;;;;;;;;;;;;;;;;;;
2024/02/04 23:13:52;;;;;;;2.13;1.00;;;9.10;99.90;;;;;;5055938;28;20480;-89
2024/02/04 23:16:20;;;;;;;1.83;0.95;;;8.00;99.90;;;;;;5044442;28;20494;-86
2024/02/04 23:18:56;;;;;;;;;;;;;;;;;;;;;
2024/02/04 23:21:28;;;;;;;1.02;0.85;;;9.00;99.90;;;;;;5066587;28;20586;-85
2024/02/04 23:23:56;;;;;;;4.07;1.17;;;9.10;99.90;;;;;;5040521;28;20159;-86
2024/02/04 23:26:23;;;;;;;1.75;1.05;;;9.20;99.90;;;;;;5044218;28;20052;-85
2024/02/04 23:28:54;;;;;;;2.70;1.10;;;10.70;99.90;;;;;;5048020;28;20171;-88
2024/02/04 23:31:30;;;;;;;2.72;1.20;;;8.90;99.90;;;;;;5042525;28;20025;-85
2024/02/04 23:33:59;;;;;;;2.45;1.20;;;9.00;99.90;;;;;;5038607;28;20499;-86
2024/02/04 23:36:35;;;;;;;3.90;1.50;;;8.90;99.90;;;;;;5041969;28;20449;-87
2024/02/04 23:39:20;;;;;;;;;;;;;;;;;;;;;
2024/02/04 23:42:04;;;;;;;5.35;1.70;;;8.60;99.90;;;;;;5056963;28;20084;-85
2024/02/04 23:44:34;;;;;;;2.42;1.40;;;;;;;;;;5035030;28;20059;-83
2024/02/04 23:47:19;;;;;;;;;;;;;;;;;;;;;
2024/02/04 23:49:48;;;;;;;3.80;1.40;;;;;;;;;;5061045;28;20124;-85
2024/02/04 23:52:15;;;;;;;3.85;1.23;;;;;;;;;;5043401;28;20021;-85
2024/02/04 23:54:41;;;;;;;2.35;1.40;;;;;;;;;;5062069;28;20029;-85
2024/02/04 23:57:21;;;;;;;4.13;1.60;;;8.60;99.90;;;;;;5040905;28;20109;-86
2024/02/04 23:59:50;;;;;;;3.25;1.80;;;;;;;;;;5042315;28;20028;-85
